sensor_id;sensor_type;location;lat;lon;timestamp;P1;durP1;ratioP1;P2;durP2;ratioP2
4313;SDS011;2170;48.794;9.182;2022-07-11T00:00:18;2.13;;;1.70;;
4313;SDS011;2170;48.794;9.182;2022-07-11T00:02:45;1.60;;;1.50;;
4313;SDS011;2170;48.794;9.182;2022-07-11T00:05:14;1.73;;;1.37;;
4313;SDS011;2170;48.794;9.182;2022-07-11T00:07:41;2.03;;;1.87;;
4313;SDS011;2170;48.794;9.182;2022-07-11T00:10:08;1.53;;;1.37;;
4313;SDS011;2170;48.794;9.182;2022-07-11T00:12:35;6.60;;;2.10;;
4313;SDS011;2170;48.794;9.182;2022-07-11T00:15:02;2.00;;;1.53;;
4313;SDS011;2170;48.794;9.182;2022-07-11T00:17:29;2.23;;;1.30;;
4313;SDS011;2170;48.794;9.182;2022-07-11T00:19:56;1.90;;;1.80;;
4313;SDS011;2170;48.794;9.182;2022-07-11T00:22:26;2.20;;;1.43;;
4313;SDS011;2170;48.794;9.182;2022-07-11T00:24:53;2.03;;;1.53;;
4313;SDS011;2170;48.794;9.182;2022-07-11T00:27:20;2.03;;;1.70;;
4313;SDS011;2170;48.794;9.182;2022-07-11T00:29:47;1.70;;;1.60;;
4313;SDS011;2170;48.794;9.182;2022-07-11T00:32:14;1.93;;;1.43;;
4313;SDS011;2170;48.794;9.182;2022-07-11T00:34:41;1.77;;;1.67;;
4313;SDS011;2170;48.794;9.182;2022-07-11T00:37:08;3.53;;;1.63;;
4313;SDS011;2170;48.794;9.182;2022-07-11T00:39:36;2.10;;;1.83;;
4313;SDS011;2170;48.794;9.182;2022-07-11T00:42:03;1.80;;;1.70;;
4313;SDS011;2170;48.794;9.182;2022-07-11T00:44:30;2.30;;;1.90;;
4313;SDS011;2170;48.794;9.182;2022-07-11T00:46:57;2.73;;;2.50;;
4313;SDS011;2170;48.794;9.182;2022-07-11T00:49:24;3.40;;;2.50;;
4313;SDS011;2170;48.794;9.182;2022-07-11T00:51:51;2.00;;;1.90;;
4313;SDS011;2170;48.794;9.182;2022-07-11T00:54:18;1.97;;;1.87;;
4313;SDS011;2170;48.794;9.182;2022-07-11T00:56:47;2.20;;;2.10;;
4313;SDS011;2170;48.794;9.182;2022-07-11T00:59:14;2.97;;;2.67;;
4313;SDS011;2170;48.794;9.182;2022-07-11T01:01:44;2.57;;;2.40;;
4313;SDS011;2170;48.794;9.182;2022-07-11T01:04:11;2.70;;;2.60;;
4313;SDS011;2170;48.794;9.182;2022-07-11T01:06:38;3.63;;;2.50;;
4313;SDS011;2170;48.794;9.182;2022-07-11T01:09:05;2.63;;;2.50;;
4313;SDS011;2170;48.794;9.182;2022-07-11T01:11:32;2.70;;;2.50;;
4313;SDS011;2170;48.794;9.182;2022-07-11T01:14:00;2.20;;;2.03;;
4313;SDS011;2170;48.794;9.182;2022-07-11T01:16:27;2.97;;;2.67;;
4313;SDS011;2170;48.794;9.182;2022-07-11T01:18:55;2.90;;;2.70;;
4313;SDS011;2170;48.794;9.182;2022-07-11T01:21:23;2.60;;;2.40;;
4313;SDS011;2170;48.794;9.182;2022-07-11T01:23:52;2.63;;;2.47;;
4313;SDS011;2170;48.794;9.182;2022-07-11T01:26:20;2.77;;;2.60;;
4313;SDS011;2170;48.794;9.182;2022-07-11T01:28:47;2.80;;;2.60;;
4313;SDS011;2170;48.794;9.182;2022-07-11T01:31:15;2.80;;;2.60;;
4313;SDS011;2170;48.794;9.182;2022-07-11T01:33:42;2.53;;;2.13;;
4313;SDS011;2170;48.794;9.182;2022-07-11T01:36:09;3.63;;;2.60;;
4313;SDS011;2170;48.794;9.182;2022-07-11T01:38:37;2.60;;;2.40;;
4313;SDS011;2170;48.794;9.182;2022-07-11T01:41:05;2.80;;;2.70;;
4313;SDS011;2170;48.794;9.182;2022-07-11T01:43:32;3.23;;;2.93;;
4313;SDS011;2170;48.794;9.182;2022-07-11T01:45:59;2.57;;;2.37;;
4313;SDS011;2170;48.794;9.182;2022-07-11T01:48:26;2.73;;;2.63;;
4313;SDS011;2170;48.794;9.182;2022-07-11T01:50:53;2.80;;;2.60;;
4313;SDS011;2170;48.794;9.182;2022-07-11T01:53:20;2.77;;;2.57;;
4313;SDS011;2170;48.794;9.182;2022-07-11T01:55:47;3.00;;;2.13;;
4313;SDS011;2170;48.794;9.182;2022-07-11T01:58:16;5.90;;;2.60;;
4313;SDS011;2170;48.794;9.182;2022-07-11T02:00:43;2.70;;;2.50;;
4313;SDS011;2170;48.794;9.182;2022-07-11T02:03:10;2.90;;;2.70;;
4313;SDS011;2170;48.794;9.182;2022-07-11T02:05:37;2.77;;;2.57;;
4313;SDS011;2170;48.794;9.182;2022-07-11T02:08:05;2.90;;;2.80;;
4313;SDS011;2170;48.794;9.182;2022-07-11T02:10:39;2.83;;;2.63;;
4313;SDS011;2170;48.794;9.182;2022-07-11T02:13:06;2.93;;;2.73;;
4313;SDS011;2170;48.794;9.182;2022-07-11T02:15:36;2.53;;;2.43;;
4313;SDS011;2170;48.794;9.182;2022-07-11T02:18:03;2.77;;;2.67;;
4313;SDS011;2170;48.794;9.182;2022-07-11T02:20:31;2.93;;;2.80;;
4313;SDS011;2170;48.794;9.182;2022-07-11T02:22:58;3.27;;;3.07;;
4313;SDS011;2170;48.794;9.182;2022-07-11T02:25:26;4.13;;;2.90;;
4313;SDS011;2170;48.794;9.182;2022-07-11T02:27:53;3.57;;;3.27;;
4313;SDS011;2170;48.794;9.182;2022-07-11T02:30:20;4.20;;;3.00;;
4313;SDS011;2170;48.794;9.182;2022-07-11T02:32:49;3.13;;;2.90;;
4313;SDS011;2170;48.794;9.182;2022-07-11T02:35:16;3.60;;;3.40;;
4313;SDS011;2170;48.794;9.182;2022-07-11T02:37:43;4.50;;;3.10;;
4313;SDS011;2170;48.794;9.182;2022-07-11T02:40:10;3.17;;;2.97;;
4313;SDS011;2170;48.794;9.182;2022-07-11T02:42:37;3.17;;;2.97;;
4313;SDS011;2170;48.794;9.182;2022-07-11T02:45:04;3.47;;;3.20;;
4313;SDS011;2170;48.794;9.182;2022-07-11T02:47:33;3.70;;;3.30;;
4313;SDS011;2170;48.794;9.182;2022-07-11T02:50:01;3.30;;;3.00;;
4313;SDS011;2170;48.794;9.182;2022-07-11T02:52:28;3.43;;;3.13;;
4313;SDS011;2170;48.794;9.182;2022-07-11T02:54:55;3.90;;;2.90;;
4313;SDS011;2170;48.794;9.182;2022-07-11T02:57:22;3.83;;;3.43;;
4313;SDS011;2170;48.794;9.182;2022-07-11T02:59:49;3.33;;;3.03;;
4313;SDS011;2170;48.794;9.182;2022-07-11T03:02:16;3.20;;;3.00;;
4313;SDS011;2170;48.794;9.182;2022-07-11T03:04:43;3.07;;;2.87;;
4313;SDS011;2170;48.794;9.182;2022-07-11T03:07:11;4.03;;;3.53;;
4313;SDS011;2170;48.794;9.182;2022-07-11T03:09:38;5.23;;;3.47;;
4313;SDS011;2170;48.794;9.182;2022-07-11T03:12:06;6.10;;;3.67;;
4313;SDS011;2170;48.794;9.182;2022-07-11T03:14:33;3.30;;;3.10;;
4313;SDS011;2170;48.794;9.182;2022-07-11T03:17:00;3.53;;;3.23;;
4313;SDS011;2170;48.794;9.182;2022-07-11T03:19:27;3.13;;;2.90;;
4313;SDS011;2170;48.794;9.182;2022-07-11T03:21:54;3.80;;;3.50;;
4313;SDS011;2170;48.794;9.182;2022-07-11T03:24:22;4.27;;;3.37;;
4313;SDS011;2170;48.794;9.182;2022-07-11T03:26:49;3.30;;;3.10;;
4313;SDS011;2170;48.794;9.182;2022-07-11T03:29:16;3.57;;;3.27;;
4313;SDS011;2170;48.794;9.182;2022-07-11T03:31:43;4.50;;;3.13;;
4313;SDS011;2170;48.794;9.182;2022-07-11T03:34:10;3.07;;;2.87;;
4313;SDS011;2170;48.794;9.182;2022-07-11T03:36:37;3.17;;;2.97;;
4313;SDS011;2170;48.794;9.182;2022-07-11T03:39:04;5.60;;;3.07;;
4313;SDS011;2170;48.794;9.182;2022-07-11T03:41:33;3.67;;;3.13;;
4313;SDS011;2170;48.794;9.182;2022-07-11T03:44:00;3.53;;;3.23;;
4313;SDS011;2170;48.794;9.182;2022-07-11T03:46:27;3.37;;;2.90;;
4313;SDS011;2170;48.794;9.182;2022-07-11T03:48:54;4.00;;;3.23;;
4313;SDS011;2170;48.794;9.182;2022-07-11T03:51:21;4.00;;;3.17;;
4313;SDS011;2170;48.794;9.182;2022-07-11T03:53:48;3.90;;;3.50;;
4313;SDS011;2170;48.794;9.182;2022-07-11T03:56:15;3.63;;;3.33;;
4313;SDS011;2170;48.794;9.182;2022-07-11T03:58:46;4.60;;;4.30;;
4313;SDS011;2170;48.794;9.182;2022-07-11T04:01:13;3.90;;;3.67;;
4313;SDS011;2170;48.794;9.182;2022-07-11T04:03:40;4.27;;;3.50;;
4313;SDS011;2170;48.794;9.182;2022-07-11T04:06:08;3.77;;;3.57;;
4313;SDS011;2170;48.794;9.182;2022-07-11T04:08:35;5.70;;;4.47;;
4313;SDS011;2170;48.794;9.182;2022-07-11T04:11:02;4.30;;;4.00;;
4313;SDS011;2170;48.794;9.182;2022-07-11T04:13:29;3.63;;;3.43;;
4313;SDS011;2170;48.794;9.182;2022-07-11T04:15:57;4.40;;;4.13;;
4313;SDS011;2170;48.794;9.182;2022-07-11T04:18:24;3.67;;;3.47;;
4313;SDS011;2170;48.794;9.182;2022-07-11T04:20:51;5.23;;;4.73;;
4313;SDS011;2170;48.794;9.182;2022-07-11T04:23:18;5.07;;;4.77;;
4313;SDS011;2170;48.794;9.182;2022-07-11T04:25:46;4.80;;;4.40;;
4313;SDS011;2170;48.794;9.182;2022-07-11T04:28:13;4.67;;;4.37;;
4313;SDS011;2170;48.794;9.182;2022-07-11T04:30:40;5.23;;;4.90;;
4313;SDS011;2170;48.794;9.182;2022-07-11T04:33:08;5.43;;;5.00;;
4313;SDS011;2170;48.794;9.182;2022-07-11T04:35:35;5.07;;;4.67;;
4313;SDS011;2170;48.794;9.182;2022-07-11T04:38:02;5.10;;;4.70;;
4313;SDS011;2170;48.794;9.182;2022-07-11T04:40:29;4.77;;;4.47;;
4313;SDS011;2170;48.794;9.182;2022-07-11T04:42:56;4.53;;;4.13;;
4313;SDS011;2170;48.794;9.182;2022-07-11T04:45:23;4.83;;;4.53;;
4313;SDS011;2170;48.794;9.182;2022-07-11T04:47:50;4.70;;;4.40;;
4313;SDS011;2170;48.794;9.182;2022-07-11T04:50:19;4.77;;;4.43;;
4313;SDS011;2170;48.794;9.182;2022-07-11T04:52:46;5.57;;;5.07;;
4313;SDS011;2170;48.794;9.182;2022-07-11T04:55:13;6.50;;;5.97;;
4313;SDS011;2170;48.794;9.182;2022-07-11T04:57:41;5.33;;;4.93;;
4313;SDS011;2170;48.794;9.182;2022-07-11T05:00:08;5.53;;;4.93;;
4313;SDS011;2170;48.794;9.182;2022-07-11T05:02:36;5.33;;;4.93;;
4313;SDS011;2170;48.794;9.182;2022-07-11T05:05:03;4.90;;;4.40;;
4313;SDS011;2170;48.794;9.182;2022-07-11T05:07:31;4.97;;;4.57;;
4313;SDS011;2170;48.794;9.182;2022-07-11T05:09:58;6.83;;;4.70;;
4313;SDS011;2170;48.794;9.182;2022-07-11T05:12:25;5.60;;;5.10;;
4313;SDS011;2170;48.794;9.182;2022-07-11T05:14:52;5.20;;;4.80;;
4313;SDS011;2170;48.794;9.182;2022-07-11T05:17:20;5.00;;;4.60;;
4313;SDS011;2170;48.794;9.182;2022-07-11T05:19:48;5.57;;;5.13;;
4313;SDS011;2170;48.794;9.182;2022-07-11T05:22:15;5.77;;;5.30;;
4313;SDS011;2170;48.794;9.182;2022-07-11T05:24:44;6.33;;;5.83;;
4313;SDS011;2170;48.794;9.182;2022-07-11T05:27:11;5.60;;;5.10;;
4313;SDS011;2170;48.794;9.182;2022-07-11T05:29:38;5.67;;;5.17;;
4313;SDS011;2170;48.794;9.182;2022-07-11T05:32:05;5.37;;;4.97;;
4313;SDS011;2170;48.794;9.182;2022-07-11T05:34:32;5.30;;;5.00;;
4313;SDS011;2170;48.794;9.182;2022-07-11T05:36:59;5.20;;;4.90;;
4313;SDS011;2170;48.794;9.182;2022-07-11T05:39:26;5.83;;;5.33;;
4313;SDS011;2170;48.794;9.182;2022-07-11T05:41:55;5.70;;;5.30;;
4313;SDS011;2170;48.794;9.182;2022-07-11T05:44:22;6.00;;;5.60;;
4313;SDS011;2170;48.794;9.182;2022-07-11T05:46:49;5.90;;;5.50;;
4313;SDS011;2170;48.794;9.182;2022-07-11T05:49:16;5.47;;;5.07;;
4313;SDS011;2170;48.794;9.182;2022-07-11T05:51:43;5.40;;;5.10;;
4313;SDS011;2170;48.794;9.182;2022-07-11T05:54:10;5.10;;;4.70;;
4313;SDS011;2170;48.794;9.182;2022-07-11T05:56:37;6.00;;;5.60;;
4313;SDS011;2170;48.794;9.182;2022-07-11T05:59:05;5.30;;;4.90;;
4313;SDS011;2170;48.794;9.182;2022-07-11T06:01:32;5.97;;;5.50;;
4313;SDS011;2170;48.794;9.182;2022-07-11T06:03:59;6.17;;;5.77;;
4313;SDS011;2170;48.794;9.182;2022-07-11T06:06:27;5.83;;;5.40;;
4313;SDS011;2170;48.794;9.182;2022-07-11T06:08:54;4.77;;;4.50;;
4313;SDS011;2170;48.794;9.182;2022-07-11T06:11:20;6.17;;;5.73;;
4313;SDS011;2170;48.794;9.182;2022-07-11T06:13:47;5.33;;;5.03;;
4313;SDS011;2170;48.794;9.182;2022-07-11T06:16:16;6.00;;;5.40;;
4313;SDS011;2170;48.794;9.182;2022-07-11T06:18:43;6.30;;;5.33;;
4313;SDS011;2170;48.794;9.182;2022-07-11T06:21:10;5.47;;;4.97;;
4313;SDS011;2170;48.794;9.182;2022-07-11T06:23:37;4.83;;;4.53;;
4313;SDS011;2170;48.794;9.182;2022-07-11T06:26:05;5.67;;;5.20;;
4313;SDS011;2170;48.794;9.182;2022-07-11T06:28:32;5.30;;;4.80;;
4313;SDS011;2170;48.794;9.182;2022-07-11T06:30:59;5.63;;;5.13;;
4313;SDS011;2170;48.794;9.182;2022-07-11T06:33:28;5.83;;;5.33;;
4313;SDS011;2170;48.794;9.182;2022-07-11T06:35:55;5.60;;;5.10;;
4313;SDS011;2170;48.794;9.182;2022-07-11T06:38:22;5.40;;;4.90;;
4313;SDS011;2170;48.794;9.182;2022-07-11T06:40:49;5.87;;;5.37;;
4313;SDS011;2170;48.794;9.182;2022-07-11T06:43:16;5.10;;;4.80;;
4313;SDS011;2170;48.794;9.182;2022-07-11T06:45:43;5.63;;;5.23;;
4313;SDS011;2170;48.794;9.182;2022-07-11T06:48:11;5.90;;;5.03;;
4313;SDS011;2170;48.794;9.182;2022-07-11T06:50:40;5.07;;;4.77;;
4313;SDS011;2170;48.794;9.182;2022-07-11T06:53:07;5.40;;;5.00;;
4313;SDS011;2170;48.794;9.182;2022-07-11T06:55:34;5.17;;;4.60;;
4313;SDS011;2170;48.794;9.182;2022-07-11T06:58:01;7.13;;;5.53;;
4313;SDS011;2170;48.794;9.182;2022-07-11T07:00:28;6.20;;;5.70;;
4313;SDS011;2170;48.794;9.182;2022-07-11T07:02:55;5.70;;;5.23;;
4313;SDS011;2170;48.794;9.182;2022-07-11T07:05:22;6.37;;;5.80;;
4313;SDS011;2170;48.794;9.182;2022-07-11T07:07:51;5.10;;;4.70;;
4313;SDS011;2170;48.794;9.182;2022-07-11T07:10:18;4.40;;;4.10;;
4313;SDS011;2170;48.794;9.182;2022-07-11T07:12:45;4.60;;;4.33;;
4313;SDS011;2170;48.794;9.182;2022-07-11T07:15:12;5.20;;;4.43;;
4313;SDS011;2170;48.794;9.182;2022-07-11T07:17:39;4.37;;;3.97;;
4313;SDS011;2170;48.794;9.182;2022-07-11T07:20:07;4.40;;;4.10;;
4313;SDS011;2170;48.794;9.182;2022-07-11T07:22:35;6.47;;;5.80;;
4313;SDS011;2170;48.794;9.182;2022-07-11T07:25:05;4.63;;;4.23;;
4313;SDS011;2170;48.794;9.182;2022-07-11T07:27:32;5.90;;;5.20;;
4313;SDS011;2170;48.794;9.182;2022-07-11T07:29:59;5.97;;;5.27;;
4313;SDS011;2170;48.794;9.182;2022-07-11T07:32:27;5.50;;;5.17;;
4313;SDS011;2170;48.794;9.182;2022-07-11T07:34:54;6.90;;;5.37;;
4313;SDS011;2170;48.794;9.182;2022-07-11T07:37:21;4.63;;;4.13;;
4313;SDS011;2170;48.794;9.182;2022-07-11T07:39:49;6.70;;;4.50;;
4313;SDS011;2170;48.794;9.182;2022-07-11T07:42:17;6.20;;;4.80;;
4313;SDS011;2170;48.794;9.182;2022-07-11T07:44:44;4.77;;;4.37;;
4313;SDS011;2170;48.794;9.182;2022-07-11T07:47:11;4.90;;;4.43;;
4313;SDS011;2170;48.794;9.182;2022-07-11T07:49:38;4.23;;;3.93;;
4313;SDS011;2170;48.794;9.182;2022-07-11T07:52:05;4.23;;;3.90;;
4313;SDS011;2170;48.794;9.182;2022-07-11T07:54:32;4.60;;;4.10;;
4313;SDS011;2170;48.794;9.182;2022-07-11T07:56:59;4.17;;;3.67;;
4313;SDS011;2170;48.794;9.182;2022-07-11T07:59:28;3.33;;;2.93;;
4313;SDS011;2170;48.794;9.182;2022-07-11T08:01:55;3.40;;;3.10;;
4313;SDS011;2170;48.794;9.182;2022-07-11T08:04:21;5.03;;;2.67;;
4313;SDS011;2170;48.794;9.182;2022-07-11T08:06:48;2.70;;;2.60;;
4313;SDS011;2170;48.794;9.182;2022-07-11T08:09:15;3.33;;;2.93;;
4313;SDS011;2170;48.794;9.182;2022-07-11T08:11:42;2.80;;;2.60;;
4313;SDS011;2170;48.794;9.182;2022-07-11T08:14:09;3.70;;;3.30;;
4313;SDS011;2170;48.794;9.182;2022-07-11T08:16:37;3.13;;;2.63;;
4313;SDS011;2170;48.794;9.182;2022-07-11T08:19:06;3.23;;;3.03;;
4313;SDS011;2170;48.794;9.182;2022-07-11T08:21:34;2.70;;;2.50;;
4313;SDS011;2170;48.794;9.182;2022-07-11T08:24:01;2.50;;;2.20;;
4313;SDS011;2170;48.794;9.182;2022-07-11T08:26:29;2.70;;;2.50;;
4313;SDS011;2170;48.794;9.182;2022-07-11T08:28:56;2.43;;;2.23;;
4313;SDS011;2170;48.794;9.182;2022-07-11T08:31:23;2.30;;;2.20;;
4313;SDS011;2170;48.794;9.182;2022-07-11T08:33:52;2.13;;;2.03;;
4313;SDS011;2170;48.794;9.182;2022-07-11T08:36:19;2.40;;;2.20;;
4313;SDS011;2170;48.794;9.182;2022-07-11T08:38:46;2.60;;;2.40;;
4313;SDS011;2170;48.794;9.182;2022-07-11T08:41:13;2.10;;;2.00;;
4313;SDS011;2170;48.794;9.182;2022-07-11T08:43:41;2.00;;;1.87;;
4313;SDS011;2170;48.794;9.182;2022-07-11T08:46:10;2.10;;;2.00;;
4313;SDS011;2170;48.794;9.182;2022-07-11T08:48:37;2.20;;;2.10;;
4313;SDS011;2170;48.794;9.182;2022-07-11T08:51:07;3.13;;;2.40;;
4313;SDS011;2170;48.794;9.182;2022-07-11T08:53:37;2.10;;;2.00;;
4313;SDS011;2170;48.794;9.182;2022-07-11T08:56:07;3.47;;;2.37;;
4313;SDS011;2170;48.794;9.182;2022-07-11T08:58:35;1.90;;;1.80;;
4313;SDS011;2170;48.794;9.182;2022-07-11T09:01:03;2.20;;;1.97;;
4313;SDS011;2170;48.794;9.182;2022-07-11T09:03:30;2.30;;;2.00;;
4313;SDS011;2170;48.794;9.182;2022-07-11T09:05:57;2.70;;;2.03;;
4313;SDS011;2170;48.794;9.182;2022-07-11T09:08:25;2.03;;;1.93;;
4313;SDS011;2170;48.794;9.182;2022-07-11T09:10:53;3.10;;;2.20;;
4313;SDS011;2170;48.794;9.182;2022-07-11T09:13:20;2.73;;;2.63;;
4313;SDS011;2170;48.794;9.182;2022-07-11T09:15:48;2.23;;;2.13;;
4313;SDS011;2170;48.794;9.182;2022-07-11T09:18:34;1.90;;;1.80;;
4313;SDS011;2170;48.794;9.182;2022-07-11T09:21:02;1.90;;;1.80;;
4313;SDS011;2170;48.794;9.182;2022-07-11T09:23:49;2.00;;;1.70;;
4313;SDS011;2170;48.794;9.182;2022-07-11T09:26:35;1.80;;;1.70;;
4313;SDS011;2170;48.794;9.182;2022-07-11T09:29:04;2.20;;;2.00;;
4313;SDS011;2170;48.794;9.182;2022-07-11T09:31:33;2.57;;;2.43;;
4313;SDS011;2170;48.794;9.182;2022-07-11T09:34:01;1.80;;;1.70;;
4313;SDS011;2170;48.794;9.182;2022-07-11T09:36:39;2.17;;;2.00;;
4313;SDS011;2170;48.794;9.182;2022-07-11T09:39:09;2.10;;;2.00;;
4313;SDS011;2170;48.794;9.182;2022-07-11T09:41:37;2.33;;;2.23;;
4313;SDS011;2170;48.794;9.182;2022-07-11T09:44:11;3.00;;;2.67;;
4313;SDS011;2170;48.794;9.182;2022-07-11T09:46:38;1.80;;;1.70;;
4313;SDS011;2170;48.794;9.182;2022-07-11T09:49:05;1.80;;;1.70;;
4313;SDS011;2170;48.794;9.182;2022-07-11T09:51:33;1.60;;;1.50;;
4313;SDS011;2170;48.794;9.182;2022-07-11T09:54:00;1.70;;;1.20;;
4313;SDS011;2170;48.794;9.182;2022-07-11T09:56:33;1.30;;;1.30;;
4313;SDS011;2170;48.794;9.182;2022-07-11T09:59:02;2.40;;;1.40;;
4313;SDS011;2170;48.794;9.182;2022-07-11T10:01:30;1.30;;;1.20;;
4313;SDS011;2170;48.794;9.182;2022-07-11T10:03:57;2.60;;;1.00;;
4313;SDS011;2170;48.794;9.182;2022-07-11T10:06:24;1.07;;;1.07;;
4313;SDS011;2170;48.794;9.182;2022-07-11T10:08:51;1.10;;;1.10;;
4313;SDS011;2170;48.794;9.182;2022-07-11T10:11:19;1.10;;;1.07;;
4313;SDS011;2170;48.794;9.182;2022-07-11T10:13:47;1.20;;;1.20;;
4313;SDS011;2170;48.794;9.182;2022-07-11T10:16:17;1.33;;;1.23;;
4313;SDS011;2170;48.794;9.182;2022-07-11T10:18:50;1.50;;;1.40;;
4313;SDS011;2170;48.794;9.182;2022-07-11T10:21:20;1.60;;;1.50;;
4313;SDS011;2170;48.794;9.182;2022-07-11T10:23:52;1.73;;;1.63;;
4313;SDS011;2170;48.794;9.182;2022-07-11T10:26:23;1.83;;;1.67;;
4313;SDS011;2170;48.794;9.182;2022-07-11T10:28:53;1.33;;;1.33;;
4313;SDS011;2170;48.794;9.182;2022-07-11T10:31:21;1.63;;;1.53;;
4313;SDS011;2170;48.794;9.182;2022-07-11T10:36:40;3.57;;;1.40;;
4313;SDS011;2170;48.794;9.182;2022-07-11T10:39:17;1.13;;;1.13;;
4313;SDS011;2170;48.794;9.182;2022-07-11T10:41:49;1.33;;;1.23;;
4313;SDS011;2170;48.794;9.182;2022-07-11T10:44:18;1.30;;;1.30;;
4313;SDS011;2170;48.794;9.182;2022-07-11T10:46:45;3.70;;;3.40;;
4313;SDS011;2170;48.794;9.182;2022-07-11T10:49:16;2.73;;;2.53;;
4313;SDS011;2170;48.794;9.182;2022-07-11T10:51:47;1.40;;;1.30;;
4313;SDS011;2170;48.794;9.182;2022-07-11T10:54:18;1.20;;;1.20;;
4313;SDS011;2170;48.794;9.182;2022-07-11T10:56:53;1.10;;;1.10;;
4313;SDS011;2170;48.794;9.182;2022-07-11T10:59:24;1.50;;;1.40;;
4313;SDS011;2170;48.794;9.182;2022-07-11T11:02:09;1.57;;;1.47;;
4313;SDS011;2170;48.794;9.182;2022-07-11T11:04:46;1.20;;;1.20;;
4313;SDS011;2170;48.794;9.182;2022-07-11T11:09:56;1.57;;;1.20;;
4313;SDS011;2170;48.794;9.182;2022-07-11T11:20:57;1.60;;;1.50;;
4313;SDS011;2170;48.794;9.182;2022-07-11T11:23:39;1.40;;;1.40;;
4313;SDS011;2170;48.794;9.182;2022-07-11T11:26:07;1.63;;;1.50;;
4313;SDS011;2170;48.794;9.182;2022-07-11T11:28:35;1.90;;;1.43;;
4313;SDS011;2170;48.794;9.182;2022-07-11T11:31:02;1.40;;;1.30;;
4313;SDS011;2170;48.794;9.182;2022-07-11T11:33:30;1.70;;;1.60;;
4313;SDS011;2170;48.794;9.182;2022-07-11T11:36:00;1.43;;;1.43;;
4313;SDS011;2170;48.794;9.182;2022-07-11T11:38:28;1.80;;;1.70;;
4313;SDS011;2170;48.794;9.182;2022-07-11T11:40:55;1.20;;;1.20;;
4313;SDS011;2170;48.794;9.182;2022-07-11T11:43:23;1.37;;;1.30;;
4313;SDS011;2170;48.794;9.182;2022-07-11T11:45:51;1.77;;;1.60;;
4313;SDS011;2170;48.794;9.182;2022-07-11T11:48:28;1.30;;;1.30;;
4313;SDS011;2170;48.794;9.182;2022-07-11T11:51:01;1.60;;;1.50;;
4313;SDS011;2170;48.794;9.182;2022-07-11T11:53:28;1.57;;;1.47;;
4313;SDS011;2170;48.794;9.182;2022-07-11T11:55:55;1.60;;;1.60;;
4313;SDS011;2170;48.794;9.182;2022-07-11T11:58:24;2.07;;;1.60;;
4313;SDS011;2170;48.794;9.182;2022-07-11T12:00:54;2.03;;;1.87;;
4313;SDS011;2170;48.794;9.182;2022-07-11T12:03:21;1.87;;;1.77;;
4313;SDS011;2170;48.794;9.182;2022-07-11T12:05:53;2.47;;;2.30;;
4313;SDS011;2170;48.794;9.182;2022-07-11T12:08:26;2.17;;;1.97;;
4313;SDS011;2170;48.794;9.182;2022-07-11T12:10:54;1.30;;;1.30;;
4313;SDS011;2170;48.794;9.182;2022-07-11T12:13:21;2.13;;;1.90;;
4313;SDS011;2170;48.794;9.182;2022-07-11T12:15:48;2.00;;;1.90;;
4313;SDS011;2170;48.794;9.182;2022-07-11T12:18:35;4.17;;;1.80;;
4313;SDS011;2170;48.794;9.182;2022-07-11T12:21:08;1.70;;;1.60;;
4313;SDS011;2170;48.794;9.182;2022-07-11T12:23:36;1.83;;;1.73;;
4313;SDS011;2170;48.794;9.182;2022-07-11T12:26:04;1.60;;;1.60;;
4313;SDS011;2170;48.794;9.182;2022-07-11T12:28:31;1.77;;;1.67;;
4313;SDS011;2170;48.794;9.182;2022-07-11T12:30:58;1.80;;;1.70;;
4313;SDS011;2170;48.794;9.182;2022-07-11T12:33:26;2.00;;;1.90;;
4313;SDS011;2170;48.794;9.182;2022-07-11T12:35:55;2.20;;;2.10;;
4313;SDS011;2170;48.794;9.182;2022-07-11T12:38:22;1.87;;;1.77;;
4313;SDS011;2170;48.794;9.182;2022-07-11T12:41:00;3.00;;;1.70;;
4313;SDS011;2170;48.794;9.182;2022-07-11T12:43:43;1.60;;;1.60;;
4313;SDS011;2170;48.794;9.182;2022-07-11T12:46:29;1.60;;;1.50;;
4313;SDS011;2170;48.794;9.182;2022-07-11T12:48:56;2.13;;;2.03;;
4313;SDS011;2170;48.794;9.182;2022-07-11T12:51:26;1.50;;;1.50;;
4313;SDS011;2170;48.794;9.182;2022-07-11T12:53:57;2.07;;;1.97;;
4313;SDS011;2170;48.794;9.182;2022-07-11T12:56:26;2.10;;;2.00;;
4313;SDS011;2170;48.794;9.182;2022-07-11T12:58:53;1.90;;;1.80;;
4313;SDS011;2170;48.794;9.182;2022-07-11T13:01:20;2.00;;;1.87;;
4313;SDS011;2170;48.794;9.182;2022-07-11T13:03:47;2.20;;;2.10;;
4313;SDS011;2170;48.794;9.182;2022-07-11T13:06:14;2.23;;;2.10;;
4313;SDS011;2170;48.794;9.182;2022-07-11T13:08:41;2.07;;;1.67;;
4313;SDS011;2170;48.794;9.182;2022-07-11T13:11:08;2.00;;;1.90;;
4313;SDS011;2170;48.794;9.182;2022-07-11T13:13:36;2.10;;;2.00;;
4313;SDS011;2170;48.794;9.182;2022-07-11T13:16:03;1.70;;;1.70;;
4313;SDS011;2170;48.794;9.182;2022-07-11T13:18:32;2.23;;;2.13;;
4313;SDS011;2170;48.794;9.182;2022-07-11T13:20:59;2.27;;;2.07;;
4313;SDS011;2170;48.794;9.182;2022-07-11T13:23:28;2.37;;;2.27;;
4313;SDS011;2170;48.794;9.182;2022-07-11T13:25:55;2.63;;;2.40;;
4313;SDS011;2170;48.794;9.182;2022-07-11T13:28:22;2.60;;;2.23;;
4313;SDS011;2170;48.794;9.182;2022-07-11T13:30:51;2.60;;;2.40;;
4313;SDS011;2170;48.794;9.182;2022-07-11T13:33:18;2.33;;;2.20;;
4313;SDS011;2170;48.794;9.182;2022-07-11T13:35:45;2.37;;;2.20;;
4313;SDS011;2170;48.794;9.182;2022-07-11T13:38:12;2.40;;;2.20;;
4313;SDS011;2170;48.794;9.182;2022-07-11T13:40:40;2.53;;;2.33;;
4313;SDS011;2170;48.794;9.182;2022-07-11T13:43:07;1.90;;;1.80;;
4313;SDS011;2170;48.794;9.182;2022-07-11T13:45:34;2.37;;;2.07;;
4313;SDS011;2170;48.794;9.182;2022-07-11T13:48:02;2.93;;;2.03;;
4313;SDS011;2170;48.794;9.182;2022-07-11T13:50:29;2.20;;;2.10;;
4313;SDS011;2170;48.794;9.182;2022-07-11T13:52:56;2.20;;;2.10;;
4313;SDS011;2170;48.794;9.182;2022-07-11T13:55:23;2.80;;;2.60;;
4313;SDS011;2170;48.794;9.182;2022-07-11T13:57:54;5.87;;;2.27;;
4313;SDS011;2170;48.794;9.182;2022-07-11T14:00:22;3.60;;;2.63;;
4313;SDS011;2170;48.794;9.182;2022-07-11T14:02:49;2.50;;;2.30;;
4313;SDS011;2170;48.794;9.182;2022-07-11T14:05:18;2.33;;;2.23;;
4313;SDS011;2170;48.794;9.182;2022-07-11T14:07:45;3.20;;;2.90;;
4313;SDS011;2170;48.794;9.182;2022-07-11T14:10:12;4.07;;;2.70;;
4313;SDS011;2170;48.794;9.182;2022-07-11T14:12:39;3.60;;;2.50;;
4313;SDS011;2170;48.794;9.182;2022-07-11T14:15:07;2.60;;;2.50;;
4313;SDS011;2170;48.794;9.182;2022-07-11T14:17:34;3.50;;;2.57;;
4313;SDS011;2170;48.794;9.182;2022-07-11T14:20:01;2.10;;;2.00;;
4313;SDS011;2170;48.794;9.182;2022-07-11T14:22:30;3.03;;;2.73;;
4313;SDS011;2170;48.794;9.182;2022-07-11T14:24:57;3.33;;;2.57;;
4313;SDS011;2170;48.794;9.182;2022-07-11T14:27:24;3.10;;;2.73;;
4313;SDS011;2170;48.794;9.182;2022-07-11T14:29:51;3.13;;;2.93;;
4313;SDS011;2170;48.794;9.182;2022-07-11T14:32:18;2.73;;;2.63;;
4313;SDS011;2170;48.794;9.182;2022-07-11T14:34:46;3.30;;;3.00;;
4313;SDS011;2170;48.794;9.182;2022-07-11T14:37:13;3.23;;;3.03;;
4313;SDS011;2170;48.794;9.182;2022-07-11T14:39:42;3.30;;;3.10;;
4313;SDS011;2170;48.794;9.182;2022-07-11T14:42:09;3.97;;;3.00;;
4313;SDS011;2170;48.794;9.182;2022-07-11T14:44:37;2.90;;;2.80;;
4313;SDS011;2170;48.794;9.182;2022-07-11T14:47:04;3.70;;;2.90;;
4313;SDS011;2170;48.794;9.182;2022-07-11T14:49:31;3.70;;;3.50;;
4313;SDS011;2170;48.794;9.182;2022-07-11T14:51:58;5.10;;;3.77;;
4313;SDS011;2170;48.794;9.182;2022-07-11T14:54:26;2.83;;;2.73;;
4313;SDS011;2170;48.794;9.182;2022-07-11T14:56:54;2.97;;;2.50;;
4313;SDS011;2170;48.794;9.182;2022-07-11T14:59:21;3.10;;;2.83;;
4313;SDS011;2170;48.794;9.182;2022-07-11T15:01:49;3.13;;;2.83;;
4313;SDS011;2170;48.794;9.182;2022-07-11T15:04:17;3.83;;;3.03;;
4313;SDS011;2170;48.794;9.182;2022-07-11T15:06:44;3.80;;;3.23;;
4313;SDS011;2170;48.794;9.182;2022-07-11T15:09:28;4.03;;;3.40;;
4313;SDS011;2170;48.794;9.182;2022-07-11T15:12:14;2.77;;;2.57;;
4313;SDS011;2170;48.794;9.182;2022-07-11T15:14:49;2.53;;;2.40;;
4313;SDS011;2170;48.794;9.182;2022-07-11T15:17:16;4.80;;;3.00;;
4313;SDS011;2170;48.794;9.182;2022-07-11T15:19:43;3.23;;;2.90;;
4313;SDS011;2170;48.794;9.182;2022-07-11T15:22:10;3.03;;;2.70;;
4313;SDS011;2170;48.794;9.182;2022-07-11T15:24:37;5.00;;;2.70;;
4313;SDS011;2170;48.794;9.182;2022-07-11T15:27:05;3.00;;;2.70;;
4313;SDS011;2170;48.794;9.182;2022-07-11T15:29:33;3.63;;;3.30;;
4313;SDS011;2170;48.794;9.182;2022-07-11T15:32:00;2.73;;;2.60;;
4313;SDS011;2170;48.794;9.182;2022-07-11T15:34:27;3.00;;;2.80;;